Time;durP1;ratioP1;P1;durP2;ratioP2;P2;SDS_P1;SDS_P2;PMS_P1;PMS_P2;Temp;Humidity;BMP_temperature;BMP_pressure;BME280_temperature;BME280_humidity;BME280_pressure;Samples;Min_cycle;Max_cycle;Signal;HPM_P1;HPM_P2
2022/03/30 00:00:13;;;;;;;58.95;38.95;;;;;;;;;;5077444;28;24419;-51
2022/03/30 00:02:38;;;;;;;56.67;39.83;;;;;;;;;;5069775;28;25001;-50
2022/03/30 00:05:04;;;;;;;54.83;37.40;;;;;;;;;;5068871;28;24437;-51
2022/03/30 00:07:31;;;;;;;58.57;39.47;;;;;;;;;;5073415;28;24820;-50
2022/03/30 00:09:57;;;;;;;59.90;39.83;;;;;;;;;;5069413;28;24453;-50
2022/03/30 00:12:22;;;;;;;56.50;38.13;;;;;;;;;;5082435;28;24857;-51
2022/03/30 00:14:47;;;;;;;55.45;37.83;;;;;;;;;;5077643;28;24503;-50
2022/03/30 00:17:12;;;;;;;56.17;38.65;;;;;;;;;;5066073;28;24476;-51
2022/03/30 00:19:38;;;;;;;55.63;37.85;;;;;;;;;;5071029;28;24546;-50
2022/03/30 00:22:03;;;;;;;57.03;37.83;;;;;;;;;;5083118;28;24823;-51
2022/03/30 00:24:28;;;;;;;57.90;37.60;;;;;;;;;;5071430;28;24433;-51
2022/03/30 00:26:53;;;;;;;54.17;35.75;;;;;;;;;;5064737;28;24434;-52
2022/03/30 00:29:18;;;;;;;55.10;37.00;;;;;;;;;;5070470;28;24840;-54
2022/03/30 00:31:44;;;;;;;52.67;36.97;;;;;;;;;;5072010;28;24417;-51
2022/03/30 00:34:09;;;;;;;57.45;38.47;;;;;;;;;;5065917;28;24442;-51
2022/03/30 00:36:34;;;;;;;54.92;37.67;;;;;;;;;;5067332;28;24511;-51
2022/03/30 00:38:59;;;;;;;53.60;37.40;;;;;;;;;;5069898;28;24457;-51
2022/03/30 00:41:26;;;;;;;56.72;37.63;;;;;;;;;;5086181;28;24440;-51
2022/03/30 00:43:51;;;;;;;55.05;37.80;;;;;;;;;;5070150;28;24975;-51
2022/03/30 00:46:17;;;;;;;54.38;37.30;;;;;;;;;;5071735;28;24446;-51
2022/03/30 00:48:42;;;;;;;55.90;37.53;;;;;;;;;;5077427;28;24849;-52
2022/03/30 00:51:08;;;;;;;55.67;37.33;;;;;;;;;;5077551;28;25127;-52
2022/03/30 00:53:33;;;;;;;51.57;36.20;;;;;;;;;;5078125;28;24513;-51
2022/03/30 00:55:58;;;;;;;56.43;37.00;;;;;;;;;;5067763;28;24434;-51
2022/03/30 00:58:25;;;;;;;57.10;39.17;;;;;;;;;;5072990;28;24514;-52
2022/03/30 01:00:50;;;;;;;57.67;37.83;;;;;;;;;;5080195;28;24982;-52
2022/03/30 01:03:16;;;;;;;54.90;36.73;;;;;;;;;;5074823;28;24511;-52
2022/03/30 01:05:42;;;;;;;56.03;37.97;;;;;;;;;;5081003;28;25003;-51
2022/03/30 01:08:07;;;;;;;57.03;37.78;;;;;;;;;;5077189;28;24515;-51
2022/03/30 01:10:32;;;;;;;53.17;37.17;;;;;;;;;;5071707;28;24528;-51
2022/03/30 01:12:57;;;;;;;55.73;36.63;;;;;;;;;;5083746;28;24580;-52
2022/03/30 01:15:23;;;;;;;52.93;37.30;;;;;;;;;;5073531;28;24476;-51
2022/03/30 01:17:48;;;;;;;52.00;36.60;;;;;;;;;;5073637;28;24418;-51
2022/03/30 01:20:16;;;;;;;58.97;39.30;;;;;;;;;;5076059;28;25036;-51
2022/03/30 01:22:42;;;;;;;56.25;37.75;;;;;;;;;;5074127;28;24935;-51
2022/03/30 01:25:07;;;;;;;53.83;37.77;;;;;;;;;;5082776;28;24450;-51
2022/03/30 01:27:33;;;;;;;53.43;36.60;;;;;;;;;;5078908;28;24449;-51
2022/03/30 01:32:42;;;;;;;52.78;36.70;;;;;;;;;;5072064;28;24441;-51
2022/03/30 01:35:07;;;;;;;53.00;36.40;;;;;;;;;;5070642;28;24960;-51
2022/03/30 01:37:33;;;;;;;55.47;36.58;;;;;;;;;;5084491;28;24417;-51
2022/03/30 01:40:00;;;;;;;53.85;36.63;;;;;;;;;;5083348;28;24422;-51
2022/03/30 01:42:26;;;;;;;57.05;38.22;;;;;;;;;;5075706;28;24439;-51
2022/03/30 01:44:52;;;;;;;53.55;36.20;;;;;;;;;;5077718;28;24425;-51
2022/03/30 01:47:17;;;;;;;51.78;36.45;;;;;;;;;;5076282;28;24437;-51
2022/03/30 01:49:43;;;;;;;51.83;36.00;;;;;;;;;;5072568;28;24797;-51
2022/03/30 01:52:08;;;;;;;53.63;35.60;;;;;;;;;;5082307;28;24429;-51
2022/03/30 01:54:34;;;;;;;55.70;36.53;;;;;;;;;;5084862;28;24850;-51
2022/03/30 01:56:59;;;;;;;49.47;35.43;;;;;;;;;;5075185;28;25005;-52
2022/03/30 01:59:25;;;;;;;52.67;36.58;;;;;;;;;;5070951;28;25006;-51
2022/03/30 02:01:50;;;;;;;52.30;35.42;;;;;;;;;;5074830;28;24969;-51
2022/03/30 02:04:15;;;;;;;53.13;36.28;;;;;;;;;;5072590;28;24422;-51
2022/03/30 02:06:41;;;;;;;53.87;35.20;;;;;;;;;;5070599;28;24525;-51
2022/03/30 02:09:07;;;;;;;52.70;35.90;;;;;;;;;;5075828;28;25218;-51
2022/03/30 02:11:33;;;;;;;50.90;35.15;;;;;;;;;;5074374;28;24423;-51
2022/03/30 02:13:58;;;;;;;56.17;36.15;;;;;;;;;;5086594;28;24425;-51
2022/03/30 02:16:24;;;;;;;52.92;35.28;;;;;;;;;;5077311;28;24426;-51
2022/03/30 02:18:49;;;;;;;52.60;34.92;;;;;;;;;;5070267;28;24418;-51
2022/03/30 02:21:15;;;;;;;55.57;37.57;;;;;;;;;;5073439;28;25021;-51
2022/03/30 02:23:41;;;;;;;52.90;36.80;;;;;;;;;;5082438;28;24856;-51
2022/03/30 02:26:06;;;;;;;53.90;37.10;;;;;;;;;;5082738;28;24435;-52
2022/03/30 02:28:32;;;;;;;56.30;36.72;;;;;;;;;;5082084;28;24434;-51
2022/03/30 02:30:57;;;;;;;50.50;35.03;;;;;;;;;;5072011;28;24438;-51
2022/03/30 02:33:23;;;;;;;51.08;35.50;;;;;;;;;;5071400;28;24410;-51
2022/03/30 02:35:48;;;;;;;53.20;35.83;;;;;;;;;;5075824;28;24426;-51
2022/03/30 02:38:13;;;;;;;53.60;36.00;;;;;;;;;;5071894;28;24449;-51
2022/03/30 02:40:38;;;;;;;49.92;33.85;;;;;;;;;;5077687;28;24522;-51
2022/03/30 02:43:03;;;;;;;51.47;35.10;;;;;;;;;;5069051;28;25224;-52
2022/03/30 02:45:29;;;;;;;49.97;34.07;;;;;;;;;;5070655;28;24509;-51
2022/03/30 02:50:38;;;;;;;48.73;33.67;;;;;;;;;;5077650;28;24420;-51
2022/03/30 02:53:03;;;;;;;53.37;35.17;;;;;;;;;;5077028;28;25221;-52
2022/03/30 02:55:28;;;;;;;51.95;35.05;;;;;;;;;;5082759;28;25034;-52
2022/03/30 02:57:53;;;;;;;51.70;33.60;;;;;;;;;;5084304;28;25084;-50
2022/03/30 03:00:19;;;;;;;50.93;33.80;;;;;;;;;;5077084;28;24419;-50
2022/03/30 03:02:44;;;;;;;49.43;33.50;;;;;;;;;;5079346;28;24943;-50
2022/03/30 03:05:09;;;;;;;49.93;34.50;;;;;;;;;;5071417;28;24414;-51
2022/03/30 03:07:34;;;;;;;49.90;34.33;;;;;;;;;;5085145;28;24457;-51
2022/03/30 03:09:59;;;;;;;48.45;33.65;;;;;;;;;;5075385;28;24426;-51
2022/03/30 03:12:25;;;;;;;50.73;34.17;;;;;;;;;;5068802;28;24457;-50
2022/03/30 03:14:50;;;;;;;52.93;34.43;;;;;;;;;;5070678;28;24406;-50
2022/03/30 03:17:15;;;;;;;50.92;33.67;;;;;;;;;;5068867;28;24422;-50
2022/03/30 03:19:41;;;;;;;53.33;34.07;;;;;;;;;;5075650;28;24454;-50
2022/03/30 03:22:06;;;;;;;48.43;33.10;;;;;;;;;;5071684;28;24444;-51
2022/03/30 03:24:32;;;;;;;50.20;34.00;;;;;;;;;;5075219;28;24819;-52
2022/03/30 03:26:57;;;;;;;50.70;33.03;;;;;;;;;;5074086;28;25055;-51
2022/03/30 03:29:22;;;;;;;48.57;32.70;;;;;;;;;;5081722;28;24457;-51
2022/03/30 03:31:47;;;;;;;53.60;34.70;;;;;;;;;;5085736;28;25213;-55
2022/03/30 03:34:12;;;;;;;46.92;32.50;;;;;;;;;;5076100;28;24560;-52
2022/03/30 03:36:38;;;;;;;48.27;32.17;;;;;;;;;;5077797;28;24438;-51
2022/03/30 03:39:03;;;;;;;49.53;33.40;;;;;;;;;;5093534;28;24447;-51
2022/03/30 03:41:28;;;;;;;50.80;34.47;;;;;;;;;;5077502;28;24972;-51
2022/03/30 03:43:53;;;;;;;46.72;33.15;;;;;;;;;;5084185;28;24500;-52
2022/03/30 03:46:18;;;;;;;49.67;34.20;;;;;;;;;;5076616;28;24972;-51
2022/03/30 03:48:43;;;;;;;48.55;34.08;;;;;;;;;;5069511;28;24506;-51
2022/03/30 03:51:09;;;;;;;49.65;33.65;;;;;;;;;;5076394;28;24429;-51
2022/03/30 03:53:35;;;;;;;50.38;33.17;;;;;;;;;;5077935;28;24746;-51
2022/03/30 03:56:00;;;;;;;48.03;33.42;;;;;;;;;;5068754;28;24530;-52
2022/03/30 03:58:26;;;;;;;48.33;33.08;;;;;;;;;;5074753;28;25052;-51
2022/03/30 04:00:51;;;;;;;50.88;34.25;;;;;;;;;;5068239;28;24564;-52
2022/03/30 04:03:16;;;;;;;48.67;32.50;;;;;;;;;;5075910;28;24446;-51
2022/03/30 04:05:41;;;;;;;51.50;33.50;;;;;;;;;;5066274;28;24789;-51
2022/03/30 04:08:07;;;;;;;51.43;34.17;;;;;;;;;;5083009;28;25606;-52
2022/03/30 04:10:33;;;;;;;49.88;33.70;;;;;;;;;;5069516;28;24415;-52
2022/03/30 04:12:58;;;;;;;49.33;33.80;;;;;;;;;;5066817;28;24437;-51
2022/03/30 04:15:23;;;;;;;49.87;33.50;;;;;;;;;;5069685;28;24994;-51
2022/03/30 04:17:48;;;;;;;47.20;33.13;;;;;;;;;;5077371;28;24422;-52
2022/03/30 04:20:14;;;;;;;50.73;33.90;;;;;;;;;;5071530;28;24976;-51
2022/03/30 04:22:40;;;;;;;50.67;33.97;;;;;;;;;;5072773;28;25026;-51
2022/03/30 04:25:06;;;;;;;46.03;32.30;;;;;;;;;;5065861;28;24414;-51
2022/03/30 04:27:31;;;;;;;48.80;33.13;;;;;;;;;;5069997;28;24438;-52
2022/03/30 04:29:56;;;;;;;51.08;34.75;;;;;;;;;;5081289;28;24948;-51
2022/03/30 04:32:21;;;;;;;49.50;33.20;;;;;;;;;;5067861;28;24599;-51
2022/03/30 04:34:46;;;;;;;50.45;34.50;;;;;;;;;;5076020;28;24508;-51
2022/03/30 04:37:11;;;;;;;49.97;34.53;;;;;;;;;;5073617;28;24434;-51
2022/03/30 04:39:37;;;;;;;47.85;33.42;;;;;;;;;;5070579;28;24445;-51
2022/03/30 04:42:02;;;;;;;49.93;33.00;;;;;;;;;;5076152;28;24417;-50
2022/03/30 04:44:27;;;;;;;51.30;34.07;;;;;;;;;;5080493;28;25265;-51
2022/03/30 04:46:53;;;;;;;50.15;33.15;;;;;;;;;;5066901;28;24529;-50
2022/03/30 04:49:18;;;;;;;50.65;33.30;;;;;;;;;;5075878;28;25024;-51
2022/03/30 04:51:43;;;;;;;49.75;34.03;;;;;;;;;;5071214;28;24549;-51
2022/03/30 04:54:09;;;;;;;50.10;33.88;;;;;;;;;;5078805;28;24765;-51
2022/03/30 04:56:34;;;;;;;45.75;33.55;;;;;;;;;;5071032;28;24426;-50
2022/03/30 04:58:59;;;;;;;53.03;34.43;;;;;;;;;;5080770;28;24429;-50
2022/03/30 05:01:24;;;;;;;48.08;33.10;;;;;;;;;;5077881;28;25165;-50
2022/03/30 05:03:49;;;;;;;48.88;33.50;;;;;;;;;;5065469;28;24430;-51
2022/03/30 05:06:15;;;;;;;50.83;33.93;;;;;;;;;;5063075;28;24431;-51
2022/03/30 05:08:40;;;;;;;49.58;32.80;;;;;;;;;;5063192;28;24485;-50
2022/03/30 05:11:05;;;;;;;50.77;33.97;;;;;;;;;;5072951;28;24514;-51
2022/03/30 05:13:30;;;;;;;52.80;35.47;;;;;;;;;;5074451;28;24438;-51
2022/03/30 05:15:55;;;;;;;50.28;34.30;;;;;;;;;;5066843;28;24437;-50
2022/03/30 05:18:22;;;;;;;52.00;34.40;;;;;;;;;;5070382;28;24440;-50
2022/03/30 05:20:47;;;;;;;48.28;33.72;;;;;;;;;;5075260;28;24509;-50
2022/03/30 05:23:12;;;;;;;47.87;33.70;;;;;;;;;;5085288;28;25071;-51
2022/03/30 05:25:37;;;;;;;49.00;34.75;;;;;;;;;;5073117;28;24422;-51
2022/03/30 05:28:05;;;;;;;51.90;34.60;;;;;;;;;;5079635;28;24434;-51
2022/03/30 05:30:31;;;;;;;52.67;34.45;;;;;;;;;;5068282;28;24513;-50
2022/03/30 05:32:56;;;;;;;48.57;33.30;;;;;;;;;;5069517;28;24853;-51
2022/03/30 05:35:21;;;;;;;50.50;34.88;;;;;;;;;;5070532;28;24422;-51
2022/03/30 05:37:47;;;;;;;50.67;33.25;;;;;;;;;;5069892;28;24394;-51
2022/03/30 05:40:12;;;;;;;51.13;32.17;;;;;;;;;;5069309;28;24417;-51
2022/03/30 05:42:37;;;;;;;50.10;31.40;;;;;;;;;;5068837;28;24423;-51
2022/03/30 05:45:04;;;;;;;49.90;31.83;;;;;;;;;;5070667;28;24500;-51
2022/03/30 05:47:29;;;;;;;52.00;31.80;;;;;;;;;;5076281;28;24529;-50
2022/03/30 05:49:54;;;;;;;54.58;33.25;;;;;;;;;;5069398;28;24486;-51
2022/03/30 05:52:20;;;;;;;52.33;33.47;;;;;;;;;;5074198;28;24410;-51
2022/03/30 05:54:45;;;;;;;51.67;32.20;;;;;;;;;;5067546;28;24541;-51
2022/03/30 05:57:10;;;;;;;51.50;33.00;;;;;;;;;;5073631;28;24525;-50
2022/03/30 05:59:37;;;;;;;50.75;33.25;;;;;;;;;;5088214;28;24391;-51
2022/03/30 06:02:03;;;;;;;51.55;32.72;;;;;;;;;;5081593;28;24480;-50
2022/03/30 06:04:29;;;;;;;48.90;32.10;;;;;;;;;;5071462;28;24832;-51
2022/03/30 06:06:54;;;;;;;51.78;34.63;;;;;;;;;;5071955;28;25035;-51
2022/03/30 06:09:20;;;;;;;55.58;34.33;;;;;;;;;;5079217;28;24441;-50
2022/03/30 06:11:46;;;;;;;52.23;32.87;;;;;;;;;;5083711;28;24441;-50
2022/03/30 06:14:11;;;;;;;51.10;33.30;;;;;;;;;;5070586;28;24512;-51
2022/03/30 06:16:36;;;;;;;50.95;33.20;;;;;;;;;;5087960;28;24431;-50
2022/03/30 06:19:02;;;;;;;53.00;34.07;;;;;;;;;;5066970;28;24975;-50
2022/03/30 06:21:30;;;;;;;49.53;32.97;;;;;;;;;;5070411;28;24506;-51
2022/03/30 06:23:56;;;;;;;51.30;33.40;;;;;;;;;;5074910;28;25078;-50
2022/03/30 06:26:21;;;;;;;48.20;31.40;;;;;;;;;;5075434;28;24525;-50
2022/03/30 06:28:47;;;;;;;49.87;32.53;;;;;;;;;;5073557;28;24442;-51
2022/03/30 06:31:17;;;;;;;51.92;32.65;;;;;;;;;;5073625;28;24972;-50
2022/03/30 06:33:42;;;;;;;50.83;31.60;;;;;;;;;;5080540;28;24514;-50
2022/03/30 06:36:07;;;;;;;48.80;32.83;;;;;;;;;;5074467;28;24554;-51
2022/03/30 06:38:33;;;;;;;51.45;33.58;;;;;;;;;;5071643;28;24573;-50
2022/03/30 06:40:58;;;;;;;51.93;33.50;;;;;;;;;;5073988;28;24411;-51
2022/03/30 06:43:23;;;;;;;53.00;34.20;;;;;;;;;;5079009;28;24426;-51
2022/03/30 06:45:49;;;;;;;47.55;33.65;;;;;;;;;;5076840;28;24513;-50
2022/03/30 06:48:14;;;;;;;56.15;35.05;;;;;;;;;;5074986;28;24544;-50
2022/03/30 06:50:39;;;;;;;47.78;32.33;;;;;;;;;;5078225;28;25073;-52
2022/03/30 06:53:09;;;;;;;49.73;33.87;;;;;;;;;;5067351;28;24449;-51
2022/03/30 06:55:34;;;;;;;53.28;33.47;;;;;;;;;;5086922;28;24483;-50
2022/03/30 06:58:00;;;;;;;49.07;33.23;;;;;;;;;;5088959;28;24904;-50
2022/03/30 07:00:25;;;;;;;47.63;32.93;;;;;;;;;;5088441;28;24477;-51
2022/03/30 07:02:52;;;;;;;46.45;32.40;;;;;;;;;;5073089;28;24844;-52
2022/03/30 07:05:17;;;;;;;49.03;33.00;;;;;;;;;;5074710;28;25033;-50
2022/03/30 07:10:27;;;;;;;47.00;32.63;;;;;;;;;;5068213;28;24474;-51
2022/03/30 07:12:53;;;;;;;48.57;32.00;;;;;;;;;;5068029;28;24875;-50
2022/03/30 07:15:19;;;;;;;48.37;32.03;;;;;;;;;;5068636;28;25014;-51
2022/03/30 07:17:48;;;;;;;49.58;33.42;;;;;;;;;;5067840;28;24478;-50
2022/03/30 07:20:14;;;;;;;46.50;32.13;;;;;;;;;;5077381;28;24510;-50
2022/03/30 07:22:39;;;;;;;46.08;31.05;;;;;;;;;;5076839;28;24425;-51
2022/03/30 07:25:05;;;;;;;43.33;30.50;;;;;;;;;;5088075;28;24949;-50
2022/03/30 07:27:31;;;;;;;48.50;31.83;;;;;;;;;;5070235;28;24843;-51
2022/03/30 07:29:56;;;;;;;43.80;30.25;;;;;;;;;;5085300;28;24414;-50
2022/03/30 07:32:23;;;;;;;44.63;29.77;;;;;;;;;;5082261;28;24434;-51
2022/03/30 07:34:49;;;;;;;44.13;30.02;;;;;;;;;;5066816;28;24695;-51
2022/03/30 07:37:14;;;;;;;48.40;32.78;;;;;;;;;;5073076;28;24529;-50
2022/03/30 07:39:39;;;;;;;44.95;31.65;;;;;;;;;;5087622;28;24912;-50
2022/03/30 07:42:04;;;;;;;46.37;30.93;;;;;;;;;;5087010;28;24483;-51
2022/03/30 07:44:31;;;;;;;45.50;30.23;;;;;;;;;;5071472;28;24494;-50
2022/03/30 07:46:58;;;;;;;44.15;31.10;;;;;;;;;;5067696;28;24509;-50
2022/03/30 07:49:24;;;;;;;42.33;30.40;;;;;;;;;;5082871;28;24418;-51
2022/03/30 07:51:49;;;;;;;43.87;29.47;;;;;;;;;;5086318;28;25091;-50
2022/03/30 07:54:14;;;;;;;40.28;28.08;;;;;;;;;;5078841;28;24515;-51
2022/03/30 07:56:39;;;;;;;43.28;28.28;;;;;;;;;;5064511;28;24517;-51
2022/03/30 07:59:04;;;;;;;41.00;28.70;;;;;;;;;;5066769;28;24410;-51
2022/03/30 08:01:29;;;;;;;42.80;28.25;;;;;;;;;;5069982;28;24973;-50
2022/03/30 08:03:56;;;;;;;38.07;28.00;;;;;;;;;;5066622;28;24394;-50
2022/03/30 08:06:21;;;;;;;40.80;28.73;;;;;;;;;;5067491;28;24434;-51
2022/03/30 08:08:47;;;;;;;39.60;28.20;;;;;;;;;;5066233;28;24765;-50
2022/03/30 08:11:13;;;;;;;39.97;28.03;;;;;;;;;;5071530;28;24526;-50
2022/03/30 08:13:38;;;;;;;37.22;25.70;;;;;;;;;;5086731;28;24517;-51
2022/03/30 08:16:04;;;;;;;36.45;26.17;;;;;;;;;;5075288;28;24611;-51
2022/03/30 08:18:29;;;;;;;38.73;26.07;;;;;;;;;;5087205;28;24409;-50
2022/03/30 08:23:38;;;;;;;35.28;25.30;;;;;;;;;;5065926;28;24418;-51
2022/03/30 08:26:03;;;;;;;33.28;24.02;;;;;;;;;;5066961;28;24785;-50
2022/03/30 08:28:28;;;;;;;32.23;23.60;;;;;;;;;;5066148;28;24446;-50
2022/03/30 08:30:54;;;;;;;33.70;24.20;;;;;;;;;;5066665;28;24521;-51
2022/03/30 08:33:23;;;;;;;35.43;24.10;;;;;;;;;;5072782;28;24426;-50
2022/03/30 08:35:48;;;;;;;36.13;24.85;;;;;;;;;;5067630;28;24415;-51
2022/03/30 08:38:13;;;;;;;36.93;24.63;;;;;;;;;;5081452;28;24569;-50
2022/03/30 08:40:39;;;;;;;34.03;24.80;;;;;;;;;;5066476;28;24402;-50
2022/03/30 08:43:04;;;;;;;38.20;25.80;;;;;;;;;;5066704;28;24449;-50
2022/03/30 08:45:29;;;;;;;38.20;26.17;;;;;;;;;;5068814;28;24967;-52
2022/03/30 08:47:54;;;;;;;38.75;26.20;;;;;;;;;;5068668;28;24469;-50
2022/03/30 08:50:20;;;;;;;36.10;26.40;;;;;;;;;;5076852;28;24425;-51
2022/03/30 08:52:47;;;;;;;36.47;25.63;;;;;;;;;;5067770;28;25056;-50
2022/03/30 08:55:13;;;;;;;38.95;26.00;;;;;;;;;;5064835;28;24433;-49
2022/03/30 08:57:38;;;;;;;36.75;25.38;;;;;;;;;;5066440;28;24419;-52
2022/03/30 09:00:06;;;;;;;37.37;27.10;;;;;;;;;;5068045;28;24422;-51
2022/03/30 09:02:35;;;;;;;36.47;25.52;;;;;;;;;;5064453;28;24778;-51
2022/03/30 09:05:15;;;;;;;38.35;25.30;;;;;;;;;;5066273;28;24487;-51
2022/03/30 09:07:40;;;;;;;36.20;25.35;;;;;;;;;;5066020;28;24457;-50
2022/03/30 09:10:11;;;;;;;38.00;26.03;;;;;;;;;;5063405;28;24911;-51
2022/03/30 09:12:37;;;;;;;37.40;26.20;;;;;;;;;;5065817;28;24418;-51
2022/03/30 09:15:04;;;;;;;42.80;27.77;;;;;;;;;;5065145;28;24492;-51
2022/03/30 09:17:35;;;;;;;40.25;27.45;;;;;;;;;;5082498;28;25023;-51
2022/03/30 09:20:02;;;;;;;35.05;24.98;;;;;;;;;;5081827;28;24452;-52
2022/03/30 09:22:28;;;;;;;34.58;25.10;;;;;;;;;;5079567;28;24435;-51
2022/03/30 09:24:54;;;;;;;37.60;24.53;;;;;;;;;;5065842;28;24975;-51
2022/03/30 09:27:23;;;;;;;34.35;24.73;;;;;;;;;;5063318;28;24522;-50
2022/03/30 09:29:49;;;;;;;33.88;24.30;;;;;;;;;;5065409;28;24423;-50
2022/03/30 09:32:14;;;;;;;35.22;24.20;;;;;;;;;;5082395;28;24428;-51
2022/03/30 09:34:57;;;;;;;33.17;23.33;;;;;;;;;;5082032;28;24483;-50
2022/03/30 09:37:22;;;;;;;34.80;24.33;;;;;;;;;;5065805;28;24502;-50
2022/03/30 09:39:49;;;;;;;33.77;23.50;;;;;;;;;;5078746;28;25297;-50
2022/03/30 09:42:15;;;;;;;32.95;23.20;;;;;;;;;;5068307;28;24492;-50
2022/03/30 09:44:45;;;;;;;31.20;21.88;;;;;;;;;;5063060;28;24415;-50
2022/03/30 09:47:11;;;;;;;30.08;21.90;;;;;;;;;;5066076;28;24435;-50
2022/03/30 09:49:40;;;;;;;32.17;22.25;;;;;;;;;;5075402;28;24475;-51
2022/03/30 09:52:17;;;;;;;30.65;21.67;;;;;;;;;;5085919;28;24839;-51
2022/03/30 09:54:43;;;;;;;30.05;20.70;;;;;;;;;;5065959;28;24441;-51
2022/03/30 09:57:12;;;;;;;29.13;20.20;;;;;;;;;;5066796;28;24865;-51
2022/03/30 09:59:56;;;;;;;28.42;20.33;;;;;;;;;;5068575;28;25003;-50
2022/03/30 10:02:21;;;;;;;33.93;21.30;;;;;;;;;;5064129;28;24431;-50
2022/03/30 10:04:46;;;;;;;28.10;20.10;;;;;;;;;;5079868;28;24438;-51
2022/03/30 10:07:11;;;;;;;28.00;19.93;;;;;;;;;;5076590;28;24428;-51
2022/03/30 10:09:39;;;;;;;31.57;21.17;;;;;;;;;;5082785;28;24495;-51
2022/03/30 10:12:05;;;;;;;27.50;19.60;;;;;;;;;;5082162;28;24410;-51
2022/03/30 10:14:30;;;;;;;30.70;21.57;;;;;;;;;;5084682;28;24429;-51
2022/03/30 10:16:55;;;;;;;27.70;20.07;;;;;;;;;;5078353;28;24426;-50
2022/03/30 10:19:20;;;;;;;31.53;21.13;;;;;;;;;;5067080;28;24434;-50
2022/03/30 10:22:02;;;;;;;30.17;21.23;;;;;;;;;;5082200;28;24563;-51
2022/03/30 10:24:45;;;;;;;30.67;21.42;;;;;;;;;;5067148;28;24480;-51
2022/03/30 10:27:30;;;;;;;32.40;22.73;;;;;;;;;;5075873;28;24426;-50
2022/03/30 10:29:59;;;;;;;30.80;21.60;;;;;;;;;;5068728;28;24430;-51
2022/03/30 10:32:25;;;;;;;32.80;22.00;;;;;;;;;;5068882;28;24970;-50
2022/03/30 10:34:50;;;;;;;33.13;21.45;;;;;;;;;;5081545;28;24426;-50
2022/03/30 10:37:22;;;;;;;31.63;21.30;;;;;;;;;;5076217;28;24512;-50
2022/03/30 10:40:03;;;;;;;30.77;20.85;;;;;;;;;;5081867;28;24417;-50
2022/03/30 10:42:54;;;;;;;32.95;21.75;;;;;;;;;;5068915;28;24516;-50
2022/03/30 10:45:28;;;;;;;29.83;21.90;;;;;;;;;;5068755;28;24561;-49
2022/03/30 10:48:12;;;;;;;34.28;22.23;;;;;;;;;;5068465;28;25022;-50
2022/03/30 10:50:42;;;;;;;32.23;22.27;;;;;;;;;;5089028;28;24456;-50
2022/03/30 10:53:25;;;;;;;36.05;22.90;;;;;;;;;;5088402;28;24609;-50
2022/03/30 10:55:51;;;;;;;35.83;22.97;;;;;;;;;;5088931;28;24565;-50
2022/03/30 10:58:16;;;;;;;38.10;25.03;;;;;;;;;;5086236;28;24493;-50
2022/03/30 11:00:41;;;;;;;37.87;26.33;;;;;;;;;;5083332;28;24517;-50
2022/03/30 11:03:20;;;;;;;36.50;24.60;;;;;;;;;;5068712;28;24460;-50
2022/03/30 11:05:57;;;;;;;33.20;24.17;;;;;;;;;;5088614;28;24935;-50
2022/03/30 11:08:31;;;;;;;35.70;25.15;;;;;;;;;;5085090;28;24457;-50
2022/03/30 11:10:57;;;;;;;36.10;23.37;;;;;;;;;;5068846;28;24435;-50
2022/03/30 11:13:23;;;;;;;37.00;24.60;;;;;;;;;;5070546;28;24434;-50
2022/03/30 11:16:00;;;;;;;35.00;24.15;;;;;;;;;;5066706;28;24415;-50
2022/03/30 11:18:27;;;;;;;37.28;25.42;;;;;;;;;;5067849;28;24924;-50
2022/03/30 11:21:18;;;;;;;36.38;23.73;;;;;;;;;;5069621;28;24426;-50
2022/03/30 11:23:55;;;;;;;32.28;23.15;;;;;;;;;;5067737;28;24423;-50
2022/03/30 11:26:22;;;;;;;38.30;24.17;;;;;;;;;;5082119;28;24485;-50
2022/03/30 11:28:47;;;;;;;36.38;22.73;;;;;;;;;;5083097;28;24446;-50
2022/03/30 11:31:22;;;;;;;28.17;19.98;;;;;;;;;;5069241;28;24411;-50
2022/03/30 11:34:19;;;;;;;29.73;20.30;;;;;;;;;;5078961;28;24824;-50
2022/03/30 11:36:45;;;;;;;29.40;20.33;;;;;;;;;;5054558;28;24450;-50
2022/03/30 11:39:13;;;;;;;33.00;21.20;;;;;;;;;;5074651;28;21405;-50
2022/03/30 11:41:38;;;;;;;29.80;19.13;;;;;;;;;;5077329;28;24504;-50
2022/03/30 11:47:13;;;;;;;28.85;17.45;;;;;;;;;;5043492;28;24423;-50
2022/03/30 11:50:08;;;;;;;24.20;16.20;;;;;;;;;;5043290;28;24419;-51
2022/03/30 11:52:33;;;;;;;23.53;15.10;;;;;;;;;;5062337;28;24784;-51
2022/03/30 11:54:58;;;;;;;23.70;15.23;;;;;;;;;;5072571;28;25002;-51
2022/03/30 11:57:24;;;;;;;22.70;15.87;;;;;;;;;;5078014;28;24442;-51
2022/03/30 11:59:55;;;;;;;24.70;15.87;;;;;;;;;;5075217;28;25015;-50
2022/03/30 12:02:27;;;;;;;22.80;15.50;;;;;;;;;;5067099;28;24856;-52
2022/03/30 12:04:52;;;;;;;23.92;16.05;;;;;;;;;;5069615;28;24457;-50
2022/03/30 12:07:19;;;;;;;24.10;15.27;;;;;;;;;;5066600;28;24418;-49
2022/03/30 12:09:48;;;;;;;21.25;15.43;;;;;;;;;;5071297;28;24432;-49
2022/03/30 12:12:27;;;;;;;25.70;16.55;;;;;;;;;;5073847;28;24449;-50
2022/03/30 12:14:59;;;;;;;22.15;14.75;;;;;;;;;;5083996;28;24424;-52
2022/03/30 12:17:24;;;;;;;22.63;15.13;;;;;;;;;;5066531;28;24474;-49
2022/03/30 12:19:51;;;;;;;21.57;13.80;;;;;;;;;;5070520;28;24414;-50
2022/03/30 12:22:16;;;;;;;25.80;15.30;;;;;;;;;;5084498;28;24426;-49
2022/03/30 12:24:42;;;;;;;21.27;13.35;;;;;;;;;;5084594;28;24773;-50
2022/03/30 12:27:07;;;;;;;20.67;13.07;;;;;;;;;;5081623;28;24480;-49
2022/03/30 12:29:32;;;;;;;21.43;13.30;;;;;;;;;;5098082;28;24449;-50
2022/03/30 12:31:59;;;;;;;24.67;14.07;;;;;;;;;;5101081;28;24406;-50
2022/03/30 12:34:24;;;;;;;19.38;13.40;;;;;;;;;;5086809;28;24390;-50
2022/03/30 12:36:51;;;;;;;20.20;14.00;;;;;;;;;;5085376;28;24568;-49
2022/03/30 12:39:17;;;;;;;23.17;14.57;;;;;;;;;;5066789;28;24387;-50
2022/03/30 12:41:42;;;;;;;20.27;13.30;;;;;;;;;;5078717;28;24398;-52
2022/03/30 12:44:09;;;;;;;22.17;14.10;;;;;;;;;;5086437;28;24472;-50
2022/03/30 12:46:35;;;;;;;22.60;13.80;;;;;;;;;;5082765;28;24932;-50
2022/03/30 12:49:04;;;;;;;23.00;14.63;;;;;;;;;;5074445;28;24768;-51
2022/03/30 12:51:33;;;;;;;24.00;14.70;;;;;;;;;;5086166;28;25065;-50
2022/03/30 12:53:58;;;;;;;20.83;13.80;;;;;;;;;;5078682;28;25007;-51
2022/03/30 12:56:24;;;;;;;23.10;14.32;;;;;;;;;;5066321;28;25113;-51
2022/03/30 12:58:50;;;;;;;20.63;14.07;;;;;;;;;;5067466;28;24423;-51
2022/03/30 13:01:33;;;;;;;23.77;13.53;;;;;;;;;;5069564;28;24564;-50
2022/03/30 13:03:58;;;;;;;25.85;15.43;;;;;;;;;;5068207;28;24450;-51
2022/03/30 13:06:25;;;;;;;24.93;15.03;;;;;;;;;;5066010;28;24429;-51
2022/03/30 13:09:12;;;;;;;21.37;14.10;;;;;;;;;;5067269;28;24419;-51
2022/03/30 13:11:41;;;;;;;20.08;13.50;;;;;;;;;;5080480;28;24406;-51
2022/03/30 13:14:18;;;;;;;23.45;14.50;;;;;;;;;;5085664;28;24418;-51
2022/03/30 13:16:53;;;;;;;22.88;15.35;;;;;;;;;;5086922;28;25013;-52
2022/03/30 13:19:22;;;;;;;25.53;15.00;;;;;;;;;;5067338;28;24557;-51
2022/03/30 13:21:47;;;;;;;24.85;14.38;;;;;;;;;;5066525;28;24918;-52
2022/03/30 13:24:21;;;;;;;22.08;14.15;;;;;;;;;;5068438;28;24421;-51
2022/03/30 13:26:51;;;;;;;22.02;13.82;;;;;;;;;;5066394;28;24456;-51
2022/03/30 13:29:17;;;;;;;20.02;13.10;;;;;;;;;;5065930;28;24512;-51
2022/03/30 13:31:46;;;;;;;20.52;12.35;;;;;;;;;;5066192;28;24418;-51
2022/03/30 13:34:12;;;;;;;23.95;13.90;;;;;;;;;;5066572;28;24789;-52
2022/03/30 13:36:38;;;;;;;20.77;13.90;;;;;;;;;;5066534;28;24430;-51
2022/03/30 13:39:04;;;;;;;24.87;14.50;;;;;;;;;;5073126;28;24422;-51
2022/03/30 13:41:29;;;;;;;23.00;14.87;;;;;;;;;;5091616;28;24471;-51
2022/03/30 13:43:54;;;;;;;23.07;14.27;;;;;;;;;;5090306;28;24544;-51
2022/03/30 13:46:20;;;;;;;18.98;12.82;;;;;;;;;;5080144;28;24440;-51
2022/03/30 13:48:45;;;;;;;21.13;13.63;;;;;;;;;;5077130;28;24987;-51
2022/03/30 13:51:10;;;;;;;23.27;15.65;;;;;;;;;;5074943;28;24418;-51
2022/03/30 13:53:39;;;;;;;27.00;16.60;;;;;;;;;;5075610;28;24943;-51
2022/03/30 13:56:05;;;;;;;20.67;14.90;;;;;;;;;;5082285;28;24422;-51
2022/03/30 13:58:30;;;;;;;24.20;16.40;;;;;;;;;;5080490;28;24553;-51
2022/03/30 14:00:56;;;;;;;24.00;17.40;;;;;;;;;;5075347;28;25103;-50
2022/03/30 14:03:21;;;;;;;27.67;18.03;;;;;;;;;;5079824;28;24821;-51
2022/03/30 14:05:46;;;;;;;25.65;17.73;;;;;;;;;;5080796;28;24418;-51
2022/03/30 14:08:11;;;;;;;27.13;19.37;;;;;;;;;;5075805;28;24498;-51
2022/03/30 14:10:36;;;;;;;27.23;18.90;;;;;;;;;;5081183;28;24895;-51
2022/03/30 14:13:02;;;;;;;23.58;16.52;;;;;;;;;;5083038;28;24497;-51
2022/03/30 14:15:28;;;;;;;23.70;17.60;;;;;;;;;;5079829;28;24422;-51
2022/03/30 14:17:53;;;;;;;24.40;17.10;;;;;;;;;;5078915;28;24426;-51
2022/03/30 14:20:19;;;;;;;24.17;17.07;;;;;;;;;;5077553;28;24526;-50
2022/03/30 14:22:45;;;;;;;20.77;16.40;;;;;;;;;;5072345;28;24419;-51
2022/03/30 14:25:11;;;;;;;25.13;17.00;;;;;;;;;;5080884;28;24409;-51
2022/03/30 14:27:37;;;;;;;23.20;16.85;;;;;;;;;;5075887;28;24446;-51